sensor_id;sensor_type;location;lat;lon;timestamp;pressure;altitude;pressure_sealevel;temperature;humidity
61086;BME280;46967;48.876;2.136;2023-04-22T00:00:25;100462.13;;;36.02;nan
61086;BME280;46967;48.876;2.136;2023-04-22T00:02:52;100460.69;;;36.00;nan
61086;BME280;46967;48.876;2.136;2023-04-22T00:05:20;100467.63;;;35.89;nan
61086;BME280;46967;48.876;2.136;2023-04-22T00:07:45;100475.34;;;35.85;nan
61086;BME280;46967;48.876;2.136;2023-04-22T00:10:11;100480.97;;;35.84;nan
61086;BME280;46967;48.876;2.136;2023-04-22T00:12:37;100472.50;;;35.80;nan
61086;BME280;46967;48.876;2.136;2023-04-22T00:15:02;100478.72;;;35.81;nan
61086;BME280;46967;48.876;2.136;2023-04-22T00:17:28;100492.06;;;35.76;nan
61086;BME280;46967;48.876;2.136;2023-04-22T00:19:54;100478.34;;;35.77;nan
61086;BME280;46967;48.876;2.136;2023-04-22T00:22:20;100479.53;;;35.81;nan
61086;BME280;46967;48.876;2.136;2023-04-22T00:24:45;100476.94;;;35.68;nan
61086;BME280;46967;48.876;2.136;2023-04-22T00:27:10;100472.84;;;35.59;nan
61086;BME280;46967;48.876;2.136;2023-04-22T00:29:36;100465.47;;;35.72;nan
61086;BME280;46967;48.876;2.136;2023-04-22T00:32:01;100467.81;;;35.62;nan
61086;BME280;46967;48.876;2.136;2023-04-22T00:34:27;100475.97;;;35.55;nan
61086;BME280;46967;48.876;2.136;2023-04-22T00:36:52;100469.31;;;35.58;nan
61086;BME280;46967;48.876;2.136;2023-04-22T00:39:18;100471.91;;;35.71;nan
61086;BME280;46967;48.876;2.136;2023-04-22T00:41:43;100467.72;;;35.50;nan
61086;BME280;46967;48.876;2.136;2023-04-22T00:44:09;100473.75;;;35.46;nan
61086;BME280;46967;48.876;2.136;2023-04-22T00:46:36;100473.94;;;35.51;nan
61086;BME280;46967;48.876;2.136;2023-04-22T00:49:03;100471.28;;;35.44;nan
61086;BME280;46967;48.876;2.136;2023-04-22T00:51:28;100462.97;;;35.46;nan
61086;BME280;46967;48.876;2.136;2023-04-22T00:53:54;100461.16;;;35.40;nan
61086;BME280;46967;48.876;2.136;2023-04-22T00:56:20;100460.81;;;35.29;nan
61086;BME280;46967;48.876;2.136;2023-04-22T00:58:46;100457.34;;;35.15;nan
61086;BME280;46967;48.876;2.136;2023-04-22T01:01:12;100450.63;;;35.31;nan
61086;BME280;46967;48.876;2.136;2023-04-22T01:03:39;100451.66;;;35.30;nan
61086;BME280;46967;48.876;2.136;2023-04-22T01:06:04;100445.28;;;35.25;nan
61086;BME280;46967;48.876;2.136;2023-04-22T01:08:30;100446.72;;;35.20;nan
61086;BME280;46967;48.876;2.136;2023-04-22T01:10:56;100441.72;;;35.24;nan
61086;BME280;46967;48.876;2.136;2023-04-22T01:13:22;100445.03;;;35.33;nan
61086;BME280;46967;48.876;2.136;2023-04-22T01:15:49;100435.06;;;35.33;nan
61086;BME280;46967;48.876;2.136;2023-04-22T01:18:14;100435.09;;;35.27;nan
61086;BME280;46967;48.876;2.136;2023-04-22T01:20:40;100432.22;;;35.22;nan
61086;BME280;46967;48.876;2.136;2023-04-22T01:23:16;100418.50;;;35.30;nan
61086;BME280;46967;48.876;2.136;2023-04-22T01:25:41;100420.19;;;35.17;nan
61086;BME280;46967;48.876;2.136;2023-04-22T01:28:07;100413.84;;;35.05;nan
61086;BME280;46967;48.876;2.136;2023-04-22T01:30:33;100411.88;;;35.26;nan
61086;BME280;46967;48.876;2.136;2023-04-22T01:32:59;100409.38;;;35.24;nan
61086;BME280;46967;48.876;2.136;2023-04-22T01:35:24;100399.78;;;35.35;nan
61086;BME280;46967;48.876;2.136;2023-04-22T01:37:50;100390.31;;;35.26;nan
61086;BME280;46967;48.876;2.136;2023-04-22T01:40:15;100394.22;;;35.30;nan
61086;BME280;46967;48.876;2.136;2023-04-22T01:42:44;100392.63;;;35.47;nan
61086;BME280;46967;48.876;2.136;2023-04-22T01:45:10;100386.81;;;35.50;nan
61086;BME280;46967;48.876;2.136;2023-04-22T01:47:37;100390.88;;;35.60;nan
61086;BME280;46967;48.876;2.136;2023-04-22T01:50:02;100389.38;;;35.64;nan
61086;BME280;46967;48.876;2.136;2023-04-22T01:52:29;100386.91;;;35.62;nan
61086;BME280;46967;48.876;2.136;2023-04-22T01:54:54;100375.94;;;35.82;nan
61086;BME280;46967;48.876;2.136;2023-04-22T01:57:20;100362.38;;;35.89;nan
61086;BME280;46967;48.876;2.136;2023-04-22T01:59:45;100347.16;;;35.76;nan
61086;BME280;46967;48.876;2.136;2023-04-22T02:02:10;100340.19;;;35.87;nan
61086;BME280;46967;48.876;2.136;2023-04-22T02:04:36;100345.06;;;35.78;nan
61086;BME280;46967;48.876;2.136;2023-04-22T02:07:01;100352.38;;;35.71;nan
61086;BME280;46967;48.876;2.136;2023-04-22T02:09:26;100356.41;;;35.62;nan
61086;BME280;46967;48.876;2.136;2023-04-22T02:11:52;100358.81;;;35.70;nan
61086;BME280;46967;48.876;2.136;2023-04-22T02:14:17;100362.38;;;35.89;nan
61086;BME280;46967;48.876;2.136;2023-04-22T02:16:42;100365.00;;;35.77;nan
61086;BME280;46967;48.876;2.136;2023-04-22T02:19:08;100355.16;;;35.64;nan
61086;BME280;46967;48.876;2.136;2023-04-22T02:21:33;100355.25;;;35.76;nan
61086;BME280;46967;48.876;2.136;2023-04-22T02:23:59;100345.28;;;35.77;nan
61086;BME280;46967;48.876;2.136;2023-04-22T02:26:24;100347.88;;;35.65;nan
61086;BME280;46967;48.876;2.136;2023-04-22T02:28:50;100337.81;;;35.79;nan
61086;BME280;46967;48.876;2.136;2023-04-22T02:31:16;100340.88;;;35.82;nan
61086;BME280;46967;48.876;2.136;2023-04-22T02:33:41;100343.66;;;35.76;nan
61086;BME280;46967;48.876;2.136;2023-04-22T02:36:07;100350.50;;;35.71;nan
61086;BME280;46967;48.876;2.136;2023-04-22T02:38:32;100360.13;;;35.61;nan
61086;BME280;46967;48.876;2.136;2023-04-22T02:40:57;100345.59;;;35.87;nan
61086;BME280;46967;48.876;2.136;2023-04-22T02:43:22;100354.28;;;35.89;nan
61086;BME280;46967;48.876;2.136;2023-04-22T02:45:48;100364.28;;;35.88;nan
61086;BME280;46967;48.876;2.136;2023-04-22T02:48:13;100362.16;;;35.90;nan
61086;BME280;46967;48.876;2.136;2023-04-22T02:50:39;100352.66;;;36.06;nan
61086;BME280;46967;48.876;2.136;2023-04-22T02:53:04;100336.34;;;36.13;nan
61086;BME280;46967;48.876;2.136;2023-04-22T02:55:30;100340.81;;;36.07;nan
61086;BME280;46967;48.876;2.136;2023-04-22T02:57:55;100338.63;;;35.98;nan
61086;BME280;46967;48.876;2.136;2023-04-22T03:00:21;100337.75;;;36.04;nan
61086;BME280;46967;48.876;2.136;2023-04-22T03:02:46;100329.59;;;36.22;nan
61086;BME280;46967;48.876;2.136;2023-04-22T03:05:11;100328.72;;;36.29;nan
61086;BME280;46967;48.876;2.136;2023-04-22T03:07:37;100325.72;;;36.37;nan
61086;BME280;46967;48.876;2.136;2023-04-22T03:10:02;100315.44;;;36.45;nan
61086;BME280;46967;48.876;2.136;2023-04-22T03:12:28;100307.66;;;36.37;nan
61086;BME280;46967;48.876;2.136;2023-04-22T03:14:53;100301.97;;;36.27;nan
61086;BME280;46967;48.876;2.136;2023-04-22T03:17:18;100300.69;;;36.30;nan
61086;BME280;46967;48.876;2.136;2023-04-22T03:19:44;100306.16;;;36.23;nan
61086;BME280;46967;48.876;2.136;2023-04-22T03:22:10;100303.06;;;36.38;nan
61086;BME280;46967;48.876;2.136;2023-04-22T03:24:35;100297.44;;;36.39;nan
61086;BME280;46967;48.876;2.136;2023-04-22T03:27:00;100288.91;;;36.54;nan
61086;BME280;46967;48.876;2.136;2023-04-22T03:29:26;100285.06;;;36.62;nan
61086;BME280;46967;48.876;2.136;2023-04-22T03:31:51;100284.44;;;36.48;nan
61086;BME280;46967;48.876;2.136;2023-04-22T03:34:16;100286.53;;;36.46;nan
61086;BME280;46967;48.876;2.136;2023-04-22T03:36:42;100283.34;;;36.19;nan
61086;BME280;46967;48.876;2.136;2023-04-22T03:39:07;100290.63;;;36.00;nan
61086;BME280;46967;48.876;2.136;2023-04-22T03:41:33;100299.28;;;35.90;nan
61086;BME280;46967;48.876;2.136;2023-04-22T03:43:58;100308.50;;;36.01;nan
61086;BME280;46967;48.876;2.136;2023-04-22T03:46:24;100300.19;;;36.02;nan
61086;BME280;46967;48.876;2.136;2023-04-22T03:48:49;100301.75;;;36.10;nan
61086;BME280;46967;48.876;2.136;2023-04-22T03:51:14;100289.09;;;36.22;nan
61086;BME280;46967;48.876;2.136;2023-04-22T03:53:40;100279.34;;;36.40;nan
61086;BME280;46967;48.876;2.136;2023-04-22T03:56:05;100277.88;;;36.56;nan
61086;BME280;46967;48.876;2.136;2023-04-22T03:58:31;100288.31;;;36.52;nan
61086;BME280;46967;48.876;2.136;2023-04-22T04:00:56;100273.38;;;36.50;nan
61086;BME280;46967;48.876;2.136;2023-04-22T04:03:22;100259.47;;;36.65;nan
61086;BME280;46967;48.876;2.136;2023-04-22T04:05:47;100259.81;;;36.56;nan
61086;BME280;46967;48.876;2.136;2023-04-22T04:08:12;100265.44;;;36.55;nan
61086;BME280;46967;48.876;2.136;2023-04-22T04:10:38;100280.31;;;36.45;nan
61086;BME280;46967;48.876;2.136;2023-04-22T04:13:03;100241.25;;;36.60;nan
61086;BME280;46967;48.876;2.136;2023-04-22T04:15:29;100221.44;;;36.78;nan
61086;BME280;46967;48.876;2.136;2023-04-22T04:17:54;100213.94;;;36.80;nan
61086;BME280;46967;48.876;2.136;2023-04-22T04:20:21;100222.44;;;36.65;nan
61086;BME280;46967;48.876;2.136;2023-04-22T04:22:46;100216.59;;;36.68;nan
61086;BME280;46967;48.876;2.136;2023-04-22T04:25:11;100202.91;;;36.82;nan
61086;BME280;46967;48.876;2.136;2023-04-22T04:27:37;100195.97;;;36.97;nan
61086;BME280;46967;48.876;2.136;2023-04-22T04:30:04;100203.94;;;36.80;nan
61086;BME280;46967;48.876;2.136;2023-04-22T04:32:30;100207.19;;;36.71;nan
61086;BME280;46967;48.876;2.136;2023-04-22T04:34:58;100207.84;;;36.85;nan
61086;BME280;46967;48.876;2.136;2023-04-22T04:37:24;100225.69;;;36.86;nan
61086;BME280;46967;48.876;2.136;2023-04-22T04:39:50;100242.00;;;36.79;nan
61086;BME280;46967;48.876;2.136;2023-04-22T04:42:15;100250.25;;;37.08;nan
61086;BME280;46967;48.876;2.136;2023-04-22T04:44:41;100248.53;;;37.25;nan
61086;BME280;46967;48.876;2.136;2023-04-22T04:47:06;100231.72;;;37.23;nan
61086;BME280;46967;48.876;2.136;2023-04-22T04:49:31;100205.72;;;37.34;nan
61086;BME280;46967;48.876;2.136;2023-04-22T04:51:57;100175.97;;;37.34;nan
61086;BME280;46967;48.876;2.136;2023-04-22T04:54:22;100162.81;;;37.26;nan
61086;BME280;46967;48.876;2.136;2023-04-22T04:56:47;100188.78;;;37.15;nan
61086;BME280;46967;48.876;2.136;2023-04-22T04:59:13;100193.59;;;36.89;nan
61086;BME280;46967;48.876;2.136;2023-04-22T05:01:38;100216.28;;;36.76;nan
61086;BME280;46967;48.876;2.136;2023-04-22T05:04:03;100212.75;;;36.88;nan
61086;BME280;46967;48.876;2.136;2023-04-22T05:06:29;100193.13;;;37.16;nan
61086;BME280;46967;48.876;2.136;2023-04-22T05:08:55;100190.44;;;37.28;nan
61086;BME280;46967;48.876;2.136;2023-04-22T05:11:20;100186.66;;;37.29;nan
61086;BME280;46967;48.876;2.136;2023-04-22T05:13:46;100193.97;;;37.16;nan
61086;BME280;46967;48.876;2.136;2023-04-22T05:16:11;100197.50;;;36.93;nan
61086;BME280;46967;48.876;2.136;2023-04-22T05:18:37;100207.00;;;36.84;nan
61086;BME280;46967;48.876;2.136;2023-04-22T05:21:04;100206.41;;;36.82;nan
61086;BME280;46967;48.876;2.136;2023-04-22T05:23:29;100226.50;;;36.74;nan
61086;BME280;46967;48.876;2.136;2023-04-22T05:25:55;100235.78;;;36.78;nan
61086;BME280;46967;48.876;2.136;2023-04-22T05:28:21;100239.84;;;36.69;nan
61086;BME280;46967;48.876;2.136;2023-04-22T05:30:46;100243.06;;;36.78;nan
61086;BME280;46967;48.876;2.136;2023-04-22T05:33:11;100255.84;;;36.71;nan
61086;BME280;46967;48.876;2.136;2023-04-22T05:35:37;100275.25;;;36.79;nan
61086;BME280;46967;48.876;2.136;2023-04-22T05:38:02;100298.41;;;36.75;nan
61086;BME280;46967;48.876;2.136;2023-04-22T05:40:27;100302.44;;;36.85;nan
61086;BME280;46967;48.876;2.136;2023-04-22T05:42:53;100281.16;;;36.88;nan
61086;BME280;46967;48.876;2.136;2023-04-22T05:45:18;100282.72;;;37.08;nan
61086;BME280;46967;48.876;2.136;2023-04-22T05:47:44;100280.63;;;37.22;nan
61086;BME280;46967;48.876;2.136;2023-04-22T05:50:09;100278.28;;;37.49;nan
61086;BME280;46967;48.876;2.136;2023-04-22T05:52:35;100282.03;;;37.48;nan
61086;BME280;46967;48.876;2.136;2023-04-22T05:55:00;100243.81;;;37.44;nan
61086;BME280;46967;48.876;2.136;2023-04-22T05:57:25;100242.72;;;37.57;nan
61086;BME280;46967;48.876;2.136;2023-04-22T05:59:51;100226.72;;;37.67;nan
61086;BME280;46967;48.876;2.136;2023-04-22T06:02:16;100218.97;;;37.71;nan
61086;BME280;46967;48.876;2.136;2023-04-22T06:04:41;100210.03;;;37.59;nan
61086;BME280;46967;48.876;2.136;2023-04-22T06:07:07;100214.53;;;37.53;nan
61086;BME280;46967;48.876;2.136;2023-04-22T06:09:32;100221.63;;;37.83;nan
61086;BME280;46967;48.876;2.136;2023-04-22T06:11:58;100243.72;;;37.92;nan
61086;BME280;46967;48.876;2.136;2023-04-22T06:14:23;100279.56;;;37.58;nan
61086;BME280;46967;48.876;2.136;2023-04-22T06:16:48;100277.22;;;37.74;nan
61086;BME280;46967;48.876;2.136;2023-04-22T06:19:18;100249.09;;;38.03;nan
61086;BME280;46967;48.876;2.136;2023-04-22T06:21:43;100231.25;;;38.31;nan
61086;BME280;46967;48.876;2.136;2023-04-22T06:24:09;100229.50;;;38.25;nan
61086;BME280;46967;48.876;2.136;2023-04-22T06:26:36;100248.84;;;38.17;nan
61086;BME280;46967;48.876;2.136;2023-04-22T06:29:01;100279.97;;;38.02;nan
61086;BME280;46967;48.876;2.136;2023-04-22T06:31:30;100269.38;;;37.89;nan
61086;BME280;46967;48.876;2.136;2023-04-22T06:33:55;100265.25;;;37.98;nan
61086;BME280;46967;48.876;2.136;2023-04-22T06:36:21;100266.75;;;38.06;nan
61086;BME280;46967;48.876;2.136;2023-04-22T06:38:46;100259.56;;;38.12;nan
61086;BME280;46967;48.876;2.136;2023-04-22T06:41:12;100254.28;;;38.17;nan
61086;BME280;46967;48.876;2.136;2023-04-22T06:43:38;100246.44;;;37.92;nan
61086;BME280;46967;48.876;2.136;2023-04-22T06:46:03;100250.19;;;38.02;nan
61086;BME280;46967;48.876;2.136;2023-04-22T06:48:28;100241.06;;;38.20;nan
61086;BME280;46967;48.876;2.136;2023-04-22T06:50:54;100250.25;;;38.19;nan
61086;BME280;46967;48.876;2.136;2023-04-22T06:53:19;100259.28;;;38.25;nan
61086;BME280;46967;48.876;2.136;2023-04-22T06:55:44;100252.41;;;38.05;nan
61086;BME280;46967;48.876;2.136;2023-04-22T06:58:10;100257.47;;;38.02;nan
61086;BME280;46967;48.876;2.136;2023-04-22T07:00:35;100252.34;;;38.29;nan
61086;BME280;46967;48.876;2.136;2023-04-22T07:03:00;100256.63;;;38.42;nan
61086;BME280;46967;48.876;2.136;2023-04-22T07:05:26;100249.53;;;38.70;nan
61086;BME280;46967;48.876;2.136;2023-04-22T07:07:51;100236.84;;;38.58;nan
61086;BME280;46967;48.876;2.136;2023-04-22T07:10:17;100236.56;;;38.72;nan
61086;BME280;46967;48.876;2.136;2023-04-22T07:12:42;100239.75;;;38.86;nan
61086;BME280;46967;48.876;2.136;2023-04-22T07:15:09;100233.91;;;38.94;nan
61086;BME280;46967;48.876;2.136;2023-04-22T07:17:34;100239.19;;;38.67;nan
61086;BME280;46967;48.876;2.136;2023-04-22T07:19:59;100250.63;;;38.69;nan
61086;BME280;46967;48.876;2.136;2023-04-22T07:22:25;100254.63;;;38.66;nan
61086;BME280;46967;48.876;2.136;2023-04-22T07:24:50;100236.28;;;38.56;nan
61086;BME280;46967;48.876;2.136;2023-04-22T07:27:15;100232.38;;;38.64;nan
61086;BME280;46967;48.876;2.136;2023-04-22T07:29:41;100251.81;;;38.78;nan
61086;BME280;46967;48.876;2.136;2023-04-22T07:32:06;100247.41;;;38.72;nan
61086;BME280;46967;48.876;2.136;2023-04-22T07:34:32;100245.66;;;38.83;nan
61086;BME280;46967;48.876;2.136;2023-04-22T07:36:57;100243.19;;;38.81;nan
61086;BME280;46967;48.876;2.136;2023-04-22T07:39:23;100249.34;;;38.76;nan
61086;BME280;46967;48.876;2.136;2023-04-22T07:41:48;100247.56;;;38.82;nan
61086;BME280;46967;48.876;2.136;2023-04-22T07:44:13;100240.44;;;39.10;nan
61086;BME280;46967;48.876;2.136;2023-04-22T07:46:42;100243.78;;;39.17;nan
61086;BME280;46967;48.876;2.136;2023-04-22T07:49:07;100240.25;;;38.66;nan
61086;BME280;46967;48.876;2.136;2023-04-22T07:51:33;100240.66;;;38.91;nan
61086;BME280;46967;48.876;2.136;2023-04-22T07:53:58;100239.09;;;38.95;nan
61086;BME280;46967;48.876;2.136;2023-04-22T07:56:23;100231.28;;;38.99;nan
61086;BME280;46967;48.876;2.136;2023-04-22T07:58:49;100243.69;;;38.78;nan
61086;BME280;46967;48.876;2.136;2023-04-22T08:01:14;100243.19;;;38.98;nan
61086;BME280;46967;48.876;2.136;2023-04-22T08:03:40;100234.50;;;38.96;nan
61086;BME280;46967;48.876;2.136;2023-04-22T08:06:05;100236.63;;;38.94;nan
61086;BME280;46967;48.876;2.136;2023-04-22T08:08:31;100235.91;;;39.16;nan
61086;BME280;46967;48.876;2.136;2023-04-22T08:10:56;100249.28;;;39.05;nan
61086;BME280;46967;48.876;2.136;2023-04-22T08:13:21;100253.66;;;38.72;nan
61086;BME280;46967;48.876;2.136;2023-04-22T08:15:46;100252.69;;;38.21;nan
61086;BME280;46967;48.876;2.136;2023-04-22T08:18:12;100251.84;;;38.49;nan
61086;BME280;46967;48.876;2.136;2023-04-22T08:20:37;100256.63;;;38.59;nan
61086;BME280;46967;48.876;2.136;2023-04-22T08:23:02;100259.72;;;38.80;nan
61086;BME280;46967;48.876;2.136;2023-04-22T08:25:28;100265.97;;;39.14;nan
61086;BME280;46967;48.876;2.136;2023-04-22T08:27:55;100267.00;;;39.30;nan
61086;BME280;46967;48.876;2.136;2023-04-22T08:30:20;100266.47;;;39.28;nan
61086;BME280;46967;48.876;2.136;2023-04-22T08:32:45;100273.34;;;39.36;nan
61086;BME280;46967;48.876;2.136;2023-04-22T08:35:11;100276.75;;;39.26;nan
61086;BME280;46967;48.876;2.136;2023-04-22T08:37:37;100276.31;;;39.34;nan
61086;BME280;46967;48.876;2.136;2023-04-22T08:40:05;100285.28;;;39.01;nan
61086;BME280;46967;48.876;2.136;2023-04-22T08:42:30;100282.16;;;38.92;nan
61086;BME280;46967;48.876;2.136;2023-04-22T08:44:56;100280.00;;;38.94;nan
61086;BME280;46967;48.876;2.136;2023-04-22T08:47:23;100269.09;;;39.06;nan
61086;BME280;46967;48.876;2.136;2023-04-22T08:49:50;100270.66;;;39.19;nan
61086;BME280;46967;48.876;2.136;2023-04-22T08:52:17;100281.25;;;38.57;nan
61086;BME280;46967;48.876;2.136;2023-04-22T08:54:42;100292.41;;;38.73;nan
61086;BME280;46967;48.876;2.136;2023-04-22T08:57:08;100293.97;;;38.86;nan
61086;BME280;46967;48.876;2.136;2023-04-22T08:59:36;100294.38;;;38.77;nan
61086;BME280;46967;48.876;2.136;2023-04-22T09:02:03;100284.59;;;38.93;nan
61086;BME280;46967;48.876;2.136;2023-04-22T09:04:29;100282.16;;;39.26;nan
61086;BME280;46967;48.876;2.136;2023-04-22T09:06:55;100285.28;;;39.01;nan
61086;BME280;46967;48.876;2.136;2023-04-22T09:09:21;100294.72;;;38.98;nan
61086;BME280;46967;48.876;2.136;2023-04-22T09:11:47;100294.47;;;39.34;nan
61086;BME280;46967;48.876;2.136;2023-04-22T09:14:12;100294.94;;;39.47;nan
61086;BME280;46967;48.876;2.136;2023-04-22T09:16:45;100297.16;;;39.11;nan
61086;BME280;46967;48.876;2.136;2023-04-22T09:19:12;100299.50;;;39.42;nan
61086;BME280;46967;48.876;2.136;2023-04-22T09:21:41;100302.81;;;39.10;nan
61086;BME280;46967;48.876;2.136;2023-04-22T09:24:08;100308.72;;;38.61;nan
61086;BME280;46967;48.876;2.136;2023-04-22T09:26:38;100301.00;;;39.16;nan
61086;BME280;46967;48.876;2.136;2023-04-22T09:29:04;100312.38;;;39.35;nan
61086;BME280;46967;48.876;2.136;2023-04-22T09:31:34;100307.78;;;39.35;nan
61086;BME280;46967;48.876;2.136;2023-04-22T09:34:00;100315.53;;;39.26;nan
61086;BME280;46967;48.876;2.136;2023-04-22T09:36:26;100317.13;;;39.44;nan
61086;BME280;46967;48.876;2.136;2023-04-22T09:38:57;100322.00;;;39.59;nan
61086;BME280;46967;48.876;2.136;2023-04-22T09:41:34;100327.19;;;39.61;nan
61086;BME280;46967;48.876;2.136;2023-04-22T09:44:01;100321.69;;;39.39;nan
61086;BME280;46967;48.876;2.136;2023-04-22T09:46:28;100324.28;;;39.67;nan
61086;BME280;46967;48.876;2.136;2023-04-22T09:48:54;100335.66;;;39.87;nan
61086;BME280;46967;48.876;2.136;2023-04-22T09:51:20;100334.81;;;40.03;nan
61086;BME280;46967;48.876;2.136;2023-04-22T09:54:05;100350.84;;;40.05;nan
61086;BME280;46967;48.876;2.136;2023-04-22T09:56:50;100348.81;;;40.17;nan
61086;BME280;46967;48.876;2.136;2023-04-22T09:59:27;100352.50;;;40.28;nan
61086;BME280;46967;48.876;2.136;2023-04-22T10:01:56;100356.91;;;40.34;nan
61086;BME280;46967;48.876;2.136;2023-04-22T10:04:22;100362.78;;;40.48;nan
61086;BME280;46967;48.876;2.136;2023-04-22T10:06:50;100367.69;;;40.51;nan
61086;BME280;46967;48.876;2.136;2023-04-22T10:09:23;100370.53;;;40.61;nan
61086;BME280;46967;48.876;2.136;2023-04-22T10:11:50;100369.81;;;40.71;nan
61086;BME280;46967;48.876;2.136;2023-04-22T10:14:17;100369.56;;;40.72;nan
61086;BME280;46967;48.876;2.136;2023-04-22T10:16:45;100376.88;;;40.45;nan
61086;BME280;46967;48.876;2.136;2023-04-22T10:19:15;100378.84;;;40.77;nan
61086;BME280;46967;48.876;2.136;2023-04-22T10:21:43;100384.06;;;40.83;nan
61086;BME280;46967;48.876;2.136;2023-04-22T10:24:14;100375.72;;;40.90;nan
61086;BME280;46967;48.876;2.136;2023-04-22T10:26:46;100376.28;;;40.92;nan
61086;BME280;46967;48.876;2.136;2023-04-22T10:29:14;100377.41;;;40.19;nan
61086;BME280;46967;48.876;2.136;2023-04-22T10:32:03;100377.94;;;40.66;nan
61086;BME280;46967;48.876;2.136;2023-04-22T10:34:30;100391.34;;;40.78;nan
61086;BME280;46967;48.876;2.136;2023-04-22T10:37:06;100388.31;;;39.85;nan
61086;BME280;46967;48.876;2.136;2023-04-22T10:39:32;100387.34;;;39.07;nan
61086;BME280;46967;48.876;2.136;2023-04-22T10:42:10;100391.13;;;39.06;nan
61086;BME280;46967;48.876;2.136;2023-04-22T10:44:51;100391.06;;;38.31;nan
61086;BME280;46967;48.876;2.136;2023-04-22T10:47:36;100395.22;;;37.75;nan
61086;BME280;46967;48.876;2.136;2023-04-22T10:50:12;100401.28;;;38.99;nan
61086;BME280;46967;48.876;2.136;2023-04-22T10:52:40;100414.81;;;39.44;nan
61086;BME280;46967;48.876;2.136;2023-04-22T10:55:06;100416.56;;;39.17;nan
61086;BME280;46967;48.876;2.136;2023-04-22T10:57:58;100411.47;;;39.37;nan
61086;BME280;46967;48.876;2.136;2023-04-22T11:03:06;100418.91;;;38.84;nan
61086;BME280;46967;48.876;2.136;2023-04-22T11:05:33;100421.59;;;39.42;nan
61086;BME280;46967;48.876;2.136;2023-04-22T11:08:14;100427.25;;;39.23;nan
61086;BME280;46967;48.876;2.136;2023-04-22T11:11:10;100437.59;;;39.94;nan
61086;BME280;46967;48.876;2.136;2023-04-22T11:13:36;100424.13;;;39.99;nan
61086;BME280;46967;48.876;2.136;2023-04-22T11:16:01;100439.22;;;39.10;nan
61086;BME280;46967;48.876;2.136;2023-04-22T11:18:27;100439.72;;;40.09;nan
61086;BME280;46967;48.876;2.136;2023-04-22T11:20:52;100432.22;;;40.38;nan
61086;BME280;46967;48.876;2.136;2023-04-22T11:23:26;100433.63;;;40.85;nan
61086;BME280;46967;48.876;2.136;2023-04-22T11:26:00;100445.47;;;40.35;nan
61086;BME280;46967;48.876;2.136;2023-04-22T11:28:26;100446.66;;;40.61;nan
61086;BME280;46967;48.876;2.136;2023-04-22T11:30:52;100454.41;;;40.74;nan
61086;BME280;46967;48.876;2.136;2023-04-22T11:33:25;100457.16;;;41.02;nan
61086;BME280;46967;48.876;2.136;2023-04-22T11:35:50;100450.03;;;40.29;nan
61086;BME280;46967;48.876;2.136;2023-04-22T11:38:16;100454.47;;;40.80;nan
61086;BME280;46967;48.876;2.136;2023-04-22T11:40:42;100456.47;;;41.44;nan
61086;BME280;46967;48.876;2.136;2023-04-22T11:43:09;100456.28;;;41.23;nan
61086;BME280;46967;48.876;2.136;2023-04-22T11:45:35;100474.00;;;41.26;nan
61086;BME280;46967;48.876;2.136;2023-04-22T11:48:02;100467.78;;;41.63;nan
61086;BME280;46967;48.876;2.136;2023-04-22T11:50:30;100466.00;;;42.16;nan
61086;BME280;46967;48.876;2.136;2023-04-22T11:53:22;100469.38;;;41.91;nan
61086;BME280;46967;48.876;2.136;2023-04-22T11:55:49;100467.06;;;41.40;nan
61086;BME280;46967;48.876;2.136;2023-04-22T11:58:18;100472.19;;;41.69;nan
61086;BME280;46967;48.876;2.136;2023-04-22T12:00:46;100484.00;;;41.80;nan
61086;BME280;46967;48.876;2.136;2023-04-22T12:03:17;100483.59;;;41.06;nan
61086;BME280;46967;48.876;2.136;2023-04-22T12:05:50;100493.75;;;41.71;nan
61086;BME280;46967;48.876;2.136;2023-04-22T12:08:18;100490.34;;;41.91;nan
61086;BME280;46967;48.876;2.136;2023-04-22T12:10:51;100502.69;;;42.09;nan
61086;BME280;46967;48.876;2.136;2023-04-22T12:13:31;100508.03;;;41.28;nan
61086;BME280;46967;48.876;2.136;2023-04-22T12:15:57;100509.59;;;41.79;nan
61086;BME280;46967;48.876;2.136;2023-04-22T12:21:13;100515.31;;;42.15;nan
61086;BME280;46967;48.876;2.136;2023-04-22T12:23:50;100519.13;;;41.49;nan
61086;BME280;46967;48.876;2.136;2023-04-22T12:26:17;100517.13;;;41.39;nan
61086;BME280;46967;48.876;2.136;2023-04-22T12:28:44;100518.00;;;41.45;nan
61086;BME280;46967;48.876;2.136;2023-04-22T12:31:09;100529.78;;;40.57;nan
61086;BME280;46967;48.876;2.136;2023-04-22T12:33:36;100515.94;;;41.03;nan
61086;BME280;46967;48.876;2.136;2023-04-22T12:36:02;100513.63;;;41.76;nan
61086;BME280;46967;48.876;2.136;2023-04-22T12:38:27;100514.31;;;42.36;nan
61086;BME280;46967;48.876;2.136;2023-04-22T12:40:53;100513.69;;;41.81;nan
61086;BME280;46967;48.876;2.136;2023-04-22T12:43:19;100513.25;;;43.11;nan
61086;BME280;46967;48.876;2.136;2023-04-22T12:45:44;100512.63;;;42.94;nan
61086;BME280;46967;48.876;2.136;2023-04-22T12:48:10;100514.13;;;43.63;nan
61086;BME280;46967;48.876;2.136;2023-04-22T12:50:35;100521.75;;;43.25;nan
61086;BME280;46967;48.876;2.136;2023-04-22T12:53:01;100518.75;;;43.27;nan
61086;BME280;46967;48.876;2.136;2023-04-22T12:55:26;100520.34;;;44.30;nan
61086;BME280;46967;48.876;2.136;2023-04-22T12:57:52;100519.38;;;44.71;nan
61086;BME280;46967;48.876;2.136;2023-04-22T13:00:18;100525.56;;;44.87;nan
61086;BME280;46967;48.876;2.136;2023-04-22T13:02:46;100530.66;;;44.54;nan
61086;BME280;46967;48.876;2.136;2023-04-22T13:05:12;100523.69;;;43.55;nan
61086;BME280;46967;48.876;2.136;2023-04-22T13:07:39;100528.63;;;43.94;nan
61086;BME280;46967;48.876;2.136;2023-04-22T13:10:06;100529.25;;;44.62;nan
61086;BME280;46967;48.876;2.136;2023-04-22T13:12:32;100529.81;;;44.64;nan